Newhaven, United Kingdom
Current Conditions -  °F | °C
As of 2:20 PM on Thursday 29 Jan 2015 (Local Time) from EGKA Reporting Station
Rain Showers Rain Showers  
Wind Chill: 32°   Ceiling: 2600
Heat Index: 41°   Visibility: 6mi
Dew Point: 36°   Wind: 18mph
Humidity: 81%   Direction: 250°WSW
Pressure: 28.97"   Gusts: NA
Location:  50.8°N, 0.06°E
Report Text: EGKA 291420Z 25016KT 9999 -SHRA FEW012 BKN026 05/02 Q0981
Loading
Personal Weather Stations






























Interactive Weather Map New forecast layout! Learn more

10-Day Weather Forecast

Advertisements
Track Severe Weather on mobile